This is the latest recevied weather packets stored in our database for station/object G7NPW-1. If no packets are shown the sender has not sent any weather packets the latest 10 day(s).
| Time | Temp. | Humidity | Pressure | Rain* | Wind** | Luminosity | Snow |
|---|---|---|---|---|---|---|---|
| 1777457407 | 15° C | 47% | 1027.1 hPa | 0 mm | - | - | - |
| 1777455904 | 12.78° C | 62% | 1028.1 hPa | 0 mm | - | - | - |
| 1777455303 | 12.78° C | 62% | 1028.1 hPa | 0 mm | - | - | - |
| 1777454704 | 12.78° C | 62% | 1028.1 hPa | 0 mm | - | - | - |
| 1777453807 | 12.78° C | 62% | 1028.1 hPa | 0 mm | - | - | - |
| 1777453504 | 12.78° C | 62% | 1028.1 hPa | 0 mm | - | - | - |
| 1777452904 | 11.11° C | 71% | 1028.1 hPa | 0 mm | - | - | - |
| 1777451408 | 11.11° C | 71% | 1028.1 hPa | 0 mm | - | - | - |
| 1777451104 | 11.11° C | 71% | 1028.1 hPa | 0 mm | - | - | - |
| 1777449904 | 11.11° C | 71% | 1028.1 hPa | 0 mm | - | - | - |
| 1777449304 | 8.89° C | 75% | 1027.1 hPa | 0 mm | - | - | - |
| 1777449007 | 8.89° C | 75% | 1027.1 hPa | 0 mm | - | - | - |
| 1777447808 | 8.89° C | 75% | 1027.1 hPa | 0 mm | - | - | - |
| 1777446904 | 8.89° C | 75% | 1027.1 hPa | 0 mm | - | - | - |
| 1777445408 | 7.78° C | 70% | 1028.1 hPa | 0 mm | - | - | - |
| 1777445104 | 7.78° C | 70% | 1028.1 hPa | 0 mm | - | - | - |
| 1777444808 | 7.78° C | 70% | 1028.1 hPa | 0 mm | - | - | - |
| 1777442407 | 7.78° C | 70% | 1028.1 hPa | 0 mm | - | - | - |
| 1777410004 | 7.78° C | 70% | 1028.1 hPa | 0 mm | - | - | - |
| 1777409408 | 8.89° C | 57% | 1028.1 hPa | 0 mm | - | - | - |
| 1777409104 | 8.89° C | 57% | 1028.1 hPa | 0 mm | - | - | - |
| 1777408207 | 8.89° C | 57% | 1028.1 hPa | 0 mm | - | - | - |
| 1777405207 | 10° C | 53% | 1027.1 hPa | 0 mm | - | - | - |
| 1777403408 | 10° C | 53% | 1027.1 hPa | 0 mm | - | - | - |
| 1777402504 | 12.22° C | 50% | 1027.1 hPa | 0 mm | - | - | - |
* Rain latest hour (hover to see other rain measurements)
** Current wind speed in m/s (hover to see current wind gust speed)